Terminal Aerodrome Forecast
Issued by NWS Indianapolis, IN

Home | Current Version | Previous Version | Text Only | Print | Product List | Glossary On
Versions: 1 2 3 4 5 6 7 8 9 10 11 12 13 14 15 16 17 18 19 20 21 22 23 24 25 26
928
FTUS43 KIND 221124
TAFIND
TAF
KIND 221124Z 2212/2318 23007KT P6SM SHRA OVC090
      TEMPO 2212/2215 3SM TSRA OVC035CB
     FM221600 23007KT P6SM VCTS OVC050CB
     FM221800 28007KT P6SM BKN080
     FM230100 32006KT P6SM SCT120=

USA.gov is the U.S. government's official web portal to all federal, state and local government web resources and services.